Claremont, New Hampshire
Current Conditions -  °F | °C
As of 5:54 PM on Tuesday 21 Oct 2014 (Local Time) from KVSF Reporting Station
Overcast Overcast  
Wind Chill: 49°   Ceiling: 1100
Heat Index: 49°   Visibility: 10mi
Dew Point: 46°   Wind: 3mph
Humidity: 90%   Direction: 10°N
Pressure: 29.98"   Gusts: NA
Location:  43.37°N, 72.34°W
Report Text: KVSF 212154Z AUTO 01003KT 10SM OVC011 09/08 A2998 RMK AO2 SLP156 T00940078
Loading
Personal Weather Stations






























Interactive Weather Map
Tropical Storm Tracking
New forecast layout! Learn more

10-Day Weather Forecast

Advertisements
Track Severe Weather on mobile